createdAt,value
2022-12-16T00:00:08.887Z,12.95
2022-12-16T00:02:36.517Z,13.43
2022-12-16T00:05:04.296Z,13.45
2022-12-16T00:07:31.592Z,13.77
2022-12-16T00:09:58.922Z,15.13
2022-12-16T00:12:26.521Z,16.38
2022-12-16T00:14:53.820Z,14.88
2022-12-16T00:17:22.188Z,14.75
2022-12-16T00:19:49.506Z,15.65
2022-12-16T00:22:17.813Z,16.15
2022-12-16T00:24:45.259Z,15.65
2022-12-16T00:27:12.619Z,16.70
2022-12-16T00:29:39.884Z,15.93
2022-12-16T00:32:07.202Z,15.82
2022-12-16T00:34:35.302Z,16.52
2022-12-16T00:37:02.636Z,17.13
2022-12-16T00:39:29.941Z,17.02
2022-12-16T00:41:57.140Z,16.58
2022-12-16T00:44:24.406Z,17.58
2022-12-16T00:46:51.624Z,17.25
2022-12-16T00:49:19.062Z,17.60
2022-12-16T00:51:46.371Z,18.27
2022-12-16T00:54:13.598Z,16.98
2022-12-16T00:56:41.330Z,17.73
2022-12-16T00:59:08.562Z,17.80
2022-12-16T01:01:36.061Z,17.80
2022-12-16T01:04:03.544Z,18.27
2022-12-16T01:06:30.750Z,18.02
2022-12-16T01:08:58.054Z,17.63
2022-12-16T01:11:26.842Z,19.90
2022-12-16T01:13:55.096Z,17.50
2022-12-16T01:16:22.813Z,17.17
2022-12-16T01:18:50.105Z,18.10
2022-12-16T01:21:17.582Z,16.88
2022-12-16T01:23:44.849Z,18.25
2022-12-16T01:26:16.614Z,18.13
2022-12-16T01:28:44.679Z,18.30
2022-12-16T01:31:13.020Z,18.33
2022-12-16T01:33:40.611Z,16.52
2022-12-16T01:36:09.058Z,16.92
2022-12-16T01:38:36.840Z,16.98
2022-12-16T01:41:04.904Z,16.92
2022-12-16T01:43:35.891Z,17.95
2022-12-16T01:46:09.750Z,17.60
2022-12-16T01:48:45.618Z,18.02
2022-12-16T01:51:29.684Z,16.20
2022-12-16T01:54:00.340Z,16.85
2022-12-16T01:56:29.056Z,16.98
2022-12-16T01:58:57.338Z,18.83
2022-12-16T02:01:24.859Z,18.23
2022-12-16T02:03:53.029Z,20.13
2022-12-16T02:06:21.556Z,19.73
2022-12-16T02:08:53.430Z,19.55
2022-12-16T02:11:28.044Z,21.25
2022-12-16T02:14:04.378Z,20.77
2022-12-16T02:16:33.513Z,22.38
2022-12-16T02:19:22.393Z,21.67
2022-12-16T02:22:11.526Z,21.98
2022-12-16T02:25:00.384Z,22.65
2022-12-16T02:27:58.529Z,23.63
2022-12-16T02:30:46.059Z,22.20
2022-12-16T02:33:51.251Z,23.42
2022-12-16T02:36:26.577Z,23.67
2022-12-16T02:39:24.548Z,22.83
2022-12-16T02:41:58.653Z,23.40
2022-12-16T02:44:39.991Z,24.05
2022-12-16T02:47:07.222Z,24.83
2022-12-16T02:49:34.429Z,23.73
2022-12-16T02:52:02.126Z,24.58
2022-12-16T02:54:29.658Z,24.23
2022-12-16T02:57:18.427Z,23.30
2022-12-16T03:00:00.793Z,25.10
2022-12-16T03:02:41.683Z,24.50
2022-12-16T03:05:17.031Z,24.23
2022-12-16T03:07:45.221Z,24.40
2022-12-16T03:10:16.653Z,26.48
2022-12-16T03:12:45.664Z,26.30
2022-12-16T03:15:18.368Z,27.35
2022-12-16T03:17:48.402Z,26.15
2022-12-16T03:20:19.599Z,26.65
2022-12-16T03:22:48.297Z,25.08
2022-12-16T03:25:16.440Z,26.63
2022-12-16T03:28:29.858Z,26.85
2022-12-16T03:31:04.611Z,26.25
2022-12-16T03:33:48.377Z,27.08
2022-12-16T03:36:20.118Z,26.75
2022-12-16T03:38:47.609Z,27.73
2022-12-16T03:41:16.538Z,25.70
2022-12-16T03:43:43.951Z,27.37
2022-12-16T03:46:12.371Z,25.80
2022-12-16T03:48:46.384Z,26.63
2022-12-16T03:51:13.931Z,27.50
2022-12-16T03:53:41.153Z,25.45
2022-12-16T03:56:09.100Z,26.15
2022-12-16T03:58:37.935Z,26.17
2022-12-16T04:01:05.412Z,26.25
2022-12-16T04:03:33.087Z,26.40
2022-12-16T04:06:00.650Z,25.33
2022-12-16T04:08:27.983Z,25.73
2022-12-16T04:11:14.320Z,25.70
2022-12-16T04:14:00.155Z,25.90
2022-12-16T04:16:46.691Z,23.88
2022-12-16T04:19:53.675Z,23.20
2022-12-16T04:22:59.295Z,23.73
2022-12-16T04:25:34.889Z,23.17
2022-12-16T04:28:02.627Z,23.17
2022-12-16T04:30:34.872Z,23.45
2022-12-16T04:33:27.642Z,21.88
2022-12-16T04:36:13.549Z,22.58
2022-12-16T04:38:59.504Z,20.60
2022-12-16T04:41:45.403Z,21.90
2022-12-16T04:44:31.992Z,20.88
2022-12-16T04:47:18.182Z,21.33
2022-12-16T04:50:04.126Z,19.58
2022-12-16T04:52:49.855Z,20.15
2022-12-16T04:55:36.009Z,19.23
2022-12-16T04:58:22.276Z,20.15
2022-12-16T05:01:08.585Z,19.98
2022-12-16T05:03:54.564Z,17.83
2022-12-16T05:06:40.628Z,19.33
2022-12-16T05:09:26.400Z,18.52
2022-12-16T05:12:12.585Z,17.52
2022-12-16T05:14:59.051Z,17.70
2022-12-16T05:17:44.940Z,17.33
2022-12-16T05:20:30.819Z,17.73
2022-12-16T05:23:16.665Z,17.83
2022-12-16T05:26:02.662Z,16.55
2022-12-16T05:28:48.617Z,16.80
2022-12-16T05:31:34.541Z,16.08
2022-12-16T05:34:20.268Z,17.88
2022-12-16T05:37:06.195Z,17.83
2022-12-16T05:39:51.929Z,16.30
2022-12-16T05:42:37.976Z,18.83
2022-12-16T05:45:24.158Z,15.95
2022-12-16T05:48:09.857Z,17.08
2022-12-16T05:50:58.170Z,16.80
2022-12-16T05:53:43.996Z,17.38
2022-12-16T05:56:30.064Z,17.10
2022-12-16T05:59:16.077Z,17.63
2022-12-16T06:02:01.972Z,17.10
2022-12-16T06:04:48.076Z,16.52
2022-12-16T06:07:34.214Z,17.42
2022-12-16T06:10:20.126Z,16.58
2022-12-16T06:13:06.259Z,18.40
2022-12-16T06:15:52.268Z,17.10
2022-12-16T06:18:38.432Z,17.77
2022-12-16T06:21:24.125Z,18.77
2022-12-16T06:24:09.871Z,17.38
2022-12-16T06:26:55.957Z,17.58
2022-12-16T06:29:41.764Z,17.75
2022-12-16T06:32:27.584Z,17.85
2022-12-16T06:35:13.645Z,17.95
2022-12-16T06:37:59.629Z,18.70
2022-12-16T06:40:45.744Z,17.70
2022-12-16T06:43:31.946Z,18.85
2022-12-16T06:46:18.114Z,18.48
2022-12-16T06:49:04.025Z,19.25
2022-12-16T06:51:49.950Z,19.05
2022-12-16T06:54:35.973Z,18.88
2022-12-16T06:57:22.033Z,18.17
2022-12-16T07:00:07.747Z,19.38
2022-12-16T07:02:54.787Z,18.80
2022-12-16T07:05:41.014Z,17.92
2022-12-16T07:08:26.912Z,18.02
2022-12-16T07:11:17.172Z,17.45
2022-12-16T07:14:03.422Z,18.63
2022-12-16T07:16:49.469Z,19.50
2022-12-16T07:19:35.769Z,18.55
2022-12-16T07:22:21.745Z,19.70
2022-12-16T07:25:07.569Z,19.05
2022-12-16T07:27:53.617Z,19.02
2022-12-16T07:30:39.875Z,19.23
2022-12-16T07:33:25.748Z,19.77
2022-12-16T07:36:11.703Z,19.23
2022-12-16T07:38:57.485Z,19.42
2022-12-16T07:41:43.432Z,19.33
2022-12-16T07:44:29.829Z,17.95
2022-12-16T07:47:15.620Z,16.92
2022-12-16T07:50:01.728Z,16.42
2022-12-16T07:52:47.958Z,17.15
2022-12-16T07:55:33.814Z,18.23
2022-12-16T07:58:19.853Z,19.15
2022-12-16T08:01:09.366Z,20.58
2022-12-16T08:03:55.922Z,19.33
2022-12-16T08:06:42.510Z,21.10
2022-12-16T08:09:28.571Z,21.30
2022-12-16T08:12:15.095Z,21.00
2022-12-16T08:15:01.020Z,21.88
2022-12-16T08:17:46.957Z,22.10
2022-12-16T08:20:33.289Z,21.58
2022-12-16T08:23:19.382Z,22.42
2022-12-16T08:26:05.713Z,21.52
2022-12-16T08:28:52.201Z,23.02
2022-12-16T08:31:39.142Z,22.48
2022-12-16T08:34:24.786Z,22.30
2022-12-16T08:37:10.933Z,22.85
2022-12-16T08:40:18.011Z,21.90
2022-12-16T08:43:07.852Z,23.20
2022-12-16T08:45:57.087Z,25.10
2022-12-16T08:48:43.119Z,21.42
2022-12-16T08:51:28.931Z,22.48
2022-12-16T08:54:15.110Z,22.98
2022-12-16T08:57:00.848Z,23.13
2022-12-16T08:59:46.863Z,22.40
2022-12-16T09:02:32.980Z,22.20
2022-12-16T09:05:19.373Z,22.90
2022-12-16T09:08:05.610Z,22.88
2022-12-16T09:10:58.148Z,22.65
2022-12-16T09:13:44.308Z,21.13
2022-12-16T09:16:30.611Z,23.63
2022-12-16T09:19:17.183Z,21.70
2022-12-16T09:22:07.941Z,21.95
2022-12-16T09:24:54.103Z,21.95
2022-12-16T09:27:42.417Z,21.05
2022-12-16T09:30:29.415Z,21.85
2022-12-16T09:33:15.257Z,21.65
2022-12-16T09:36:01.249Z,21.60
2022-12-16T09:38:47.921Z,22.80
2022-12-16T09:42:02.981Z,22.42
2022-12-16T09:44:58.415Z,22.02
2022-12-16T09:48:15.593Z,23.23
2022-12-16T09:51:02.782Z,22.35
2022-12-16T09:53:52.069Z,21.63
2022-12-16T09:56:42.040Z,21.80
2022-12-16T10:05:09.964Z,22.10
2022-12-16T10:08:01.176Z,21.65
2022-12-16T10:11:19.906Z,21.05
2022-12-16T10:14:28.647Z,21.48
2022-12-16T10:17:39.182Z,22.10
2022-12-16T10:20:55.679Z,23.05
2022-12-16T10:23:57.229Z,23.05
2022-12-16T10:26:48.999Z,22.52
2022-12-16T10:29:40.836Z,22.38
2022-12-16T10:32:50.171Z,22.45
2022-12-16T10:35:42.705Z,23.60
2022-12-16T10:38:41.311Z,25.33
2022-12-16T10:41:28.100Z,23.65
2022-12-16T10:44:14.712Z,25.63
2022-12-16T10:47:00.781Z,24.88
2022-12-16T10:49:50.856Z,23.98
2022-12-16T10:52:40.585Z,26.02
2022-12-16T10:55:36.414Z,25.65
2022-12-16T10:58:41.796Z,25.70
2022-12-16T11:01:44.242Z,26.83
2022-12-16T11:04:50.234Z,27.50
2022-12-16T11:07:44.526Z,27.23
2022-12-16T11:11:00.652Z,30.75
2022-12-16T11:13:47.809Z,29.42
2022-12-16T11:16:47.590Z,31.33
2022-12-16T11:19:42.470Z,31.50
2022-12-16T11:22:40.221Z,30.55
2022-12-16T11:25:36.691Z,30.33
2022-12-16T11:28:36.015Z,30.02
2022-12-16T11:31:28.874Z,30.52
2022-12-16T11:34:16.910Z,29.17
2022-12-16T11:37:04.121Z,33.00
2022-12-16T11:40:06.956Z,36.83
2022-12-16T11:42:53.054Z,28.20
2022-12-16T11:45:40.060Z,28.15
2022-12-16T11:48:46.438Z,28.60
2022-12-16T11:51:33.390Z,26.85
2022-12-16T11:54:26.723Z,26.58
2022-12-16T11:57:13.541Z,26.73
2022-12-16T12:00:03.670Z,25.35
2022-12-16T12:03:01.556Z,24.10
2022-12-16T12:06:10.151Z,23.48
2022-12-16T12:09:09.429Z,23.35
2022-12-16T12:12:12.266Z,23.75
2022-12-16T12:15:13.942Z,25.20
2022-12-16T12:18:06.255Z,24.50
2022-12-16T12:21:00.893Z,26.60
2022-12-16T12:24:25.691Z,26.88
2022-12-16T12:27:19.168Z,27.20
2022-12-16T12:30:16.484Z,26.35
2022-12-16T12:33:15.884Z,28.23
2022-12-16T12:36:20.709Z,28.27
2022-12-16T12:39:11.191Z,27.23
2022-12-16T12:42:19.297Z,27.02
2022-12-16T12:45:30.354Z,27.05
2022-12-16T12:48:42.453Z,27.20
2022-12-16T12:51:59.127Z,28.15
2022-12-16T12:54:53.367Z,28.98
2022-12-16T12:57:42.329Z,28.20
2022-12-16T13:00:41.230Z,27.33
2022-12-16T13:03:48.554Z,28.45
2022-12-16T13:06:35.699Z,26.33
2022-12-16T13:09:45.236Z,27.65
2022-12-16T13:12:31.078Z,27.73
2022-12-16T13:15:23.179Z,27.95
2022-12-16T13:18:18.206Z,28.45
2022-12-16T13:21:44.590Z,27.70
2022-12-16T13:24:58.005Z,26.73
2022-12-16T13:27:45.435Z,28.55
2022-12-16T13:30:31.310Z,25.38
2022-12-16T13:33:25.381Z,26.90
2022-12-16T13:36:16.425Z,25.60
2022-12-16T13:39:09.966Z,26.27
2022-12-16T13:41:55.866Z,26.08
2022-12-16T13:45:00.305Z,24.50
2022-12-16T13:48:12.630Z,23.33
2022-12-16T13:51:00.520Z,23.27
2022-12-16T13:53:48.168Z,22.08
2022-12-16T13:56:42.247Z,21.95
2022-12-16T13:59:43.767Z,20.75
2022-12-16T14:02:58.824Z,20.98
2022-12-16T14:05:47.963Z,21.33
2022-12-16T14:08:36.068Z,17.92
2022-12-16T14:11:32.942Z,19.15
2022-12-16T14:14:40.781Z,16.83
2022-12-16T14:17:33.703Z,17.00
2022-12-16T14:20:49.225Z,17.50
2022-12-16T14:23:58.568Z,18.52
2022-12-16T14:26:45.404Z,18.52
2022-12-16T14:29:40.739Z,18.92
2022-12-16T14:32:42.132Z,19.33
2022-12-16T14:35:46.513Z,18.80
2022-12-16T14:38:47.649Z,20.52
2022-12-16T14:41:36.508Z,21.02
2022-12-16T14:44:24.280Z,22.05
2022-12-16T14:47:10.680Z,21.38
2022-12-16T14:50:10.519Z,21.25
2022-12-16T14:52:57.107Z,20.25
2022-12-16T14:55:53.385Z,19.67
2022-12-16T14:58:41.858Z,20.30
2022-12-16T15:01:33.966Z,19.60
2022-12-16T15:04:23.026Z,19.00
2022-12-16T15:07:11.785Z,17.90
2022-12-16T15:10:04.442Z,18.85
2022-12-16T15:12:53.875Z,19.30
2022-12-16T15:16:04.158Z,19.42
2022-12-16T15:18:57.727Z,18.10
2022-12-16T15:21:44.233Z,17.08
2022-12-16T15:24:35.782Z,18.08
2022-12-16T15:27:40.264Z,18.10
2022-12-16T15:30:54.172Z,17.73
2022-12-16T15:33:43.829Z,14.25
2022-12-16T15:36:43.536Z,16.63
2022-12-16T15:39:41.545Z,17.73
2022-12-16T15:42:43.585Z,17.48
2022-12-16T15:45:38.802Z,16.67
2022-12-16T15:48:31.724Z,16.85
2022-12-16T15:51:17.713Z,17.85
2022-12-16T15:54:04.141Z,18.40
2022-12-16T15:57:02.914Z,17.45
2022-12-16T15:59:51.481Z,17.67
2022-12-16T16:02:44.557Z,16.38
2022-12-16T16:05:31.464Z,16.48
2022-12-16T16:08:17.393Z,15.40
2022-12-16T16:11:03.955Z,15.38
2022-12-16T16:13:50.528Z,16.55
2022-12-16T16:16:36.684Z,15.43
2022-12-16T16:19:23.565Z,16.33
2022-12-16T16:22:09.664Z,15.98
2022-12-16T16:24:55.590Z,15.73
2022-12-16T16:27:41.814Z,16.63
2022-12-16T16:30:29.577Z,15.73
2022-12-16T16:33:15.822Z,16.27
2022-12-16T16:36:01.659Z,16.75
2022-12-16T16:38:47.674Z,16.23
2022-12-16T16:41:34.481Z,16.70
2022-12-16T16:44:20.529Z,18.23
2022-12-16T16:47:06.885Z,18.73
2022-12-16T16:49:57.076Z,17.95
2022-12-16T16:52:44.396Z,18.13
2022-12-16T16:55:36.690Z,19.27
2022-12-16T16:58:44.693Z,19.00
2022-12-16T17:01:32.408Z,20.25
2022-12-16T17:04:18.297Z,20.63
2022-12-16T17:07:04.675Z,21.13
2022-12-16T17:09:50.826Z,20.50
2022-12-16T17:12:48.520Z,20.30
2022-12-16T17:15:47.951Z,21.50
2022-12-16T17:18:36.452Z,22.55
2022-12-16T17:21:22.620Z,21.13
2022-12-16T17:24:08.662Z,22.40
2022-12-16T17:27:00.309Z,20.45
2022-12-16T17:29:46.817Z,21.35
2022-12-16T17:32:33.237Z,22.58
2022-12-16T17:35:19.590Z,20.88
2022-12-16T17:38:05.885Z,20.88
2022-12-16T17:40:52.075Z,21.60
2022-12-16T17:43:38.267Z,23.20
2022-12-16T17:46:26.070Z,21.58
2022-12-16T17:49:13.462Z,19.48
2022-12-16T17:52:01.065Z,21.42
2022-12-16T17:54:47.484Z,22.58
2022-12-16T17:57:33.661Z,23.02
2022-12-16T18:00:20.073Z,21.98
2022-12-16T18:03:06.900Z,22.63
2022-12-16T18:05:52.781Z,22.83
2022-12-16T18:08:38.828Z,23.85
2022-12-16T18:11:39.031Z,24.85
2022-12-16T18:14:25.311Z,23.17
2022-12-16T18:17:11.471Z,22.80
2022-12-16T18:19:57.816Z,22.88
2022-12-16T18:22:44.125Z,21.65
2022-12-16T18:25:30.632Z,20.58
2022-12-16T18:28:19.570Z,21.52
2022-12-16T18:31:05.901Z,23.02
2022-12-16T18:33:52.716Z,22.02
2022-12-16T18:36:38.924Z,21.83
2022-12-16T18:39:25.412Z,22.52
2022-12-16T18:42:11.531Z,23.30
2022-12-16T18:45:01.251Z,23.23
2022-12-16T18:50:37.751Z,22.15
2022-12-16T18:53:24.656Z,22.25
2022-12-16T18:56:22.719Z,23.38
2022-12-16T18:59:09.146Z,23.70
2022-12-16T19:01:55.321Z,23.27
2022-12-16T19:04:41.784Z,24.58
2022-12-16T19:07:31.726Z,24.00
2022-12-16T19:10:20.098Z,22.77
2022-12-16T19:13:06.403Z,24.63
2022-12-16T19:15:52.849Z,25.42
2022-12-16T19:18:39.214Z,25.52
2022-12-16T19:21:25.282Z,27.38
2022-12-16T19:24:12.096Z,28.73
2022-12-16T19:26:58.267Z,28.02
2022-12-16T19:29:44.309Z,28.27
2022-12-16T19:32:30.359Z,29.95
2022-12-16T19:35:27.015Z,30.40
2022-12-16T19:38:13.357Z,29.13
2022-12-16T19:41:08.687Z,29.88
2022-12-16T19:44:00.150Z,29.65
2022-12-16T19:46:49.663Z,31.98
2022-12-16T19:49:40.708Z,31.00
2022-12-16T19:52:30.231Z,31.20
2022-12-16T19:55:17.710Z,32.42
2022-12-16T19:58:23.892Z,30.73
2022-12-16T20:01:10.549Z,31.27
2022-12-16T20:03:58.492Z,32.63
2022-12-16T20:06:44.965Z,31.80
2022-12-16T20:09:31.707Z,34.08
2022-12-16T20:12:17.341Z,32.63
2022-12-16T20:15:03.223Z,35.70
2022-12-16T20:17:49.332Z,36.10
2022-12-16T20:20:35.599Z,37.60
2022-12-16T20:23:21.908Z,35.42
2022-12-16T20:26:15.135Z,35.05
2022-12-16T20:29:01.795Z,37.20
2022-12-16T20:31:48.405Z,34.83
2022-12-16T20:34:34.526Z,35.53
2022-12-16T20:37:20.594Z,35.90
2022-12-16T20:40:06.384Z,34.58
2022-12-16T20:42:53.525Z,34.85
2022-12-16T20:45:39.730Z,34.83
2022-12-16T20:48:32.394Z,34.55
2022-12-16T20:54:29.309Z,34.25
2022-12-16T20:57:15.521Z,33.75
2022-12-16T21:00:01.585Z,37.15
2022-12-16T21:02:48.975Z,36.05
2022-12-16T21:05:35.517Z,35.45
2022-12-16T21:08:21.696Z,34.70
2022-12-16T21:11:07.613Z,34.67
2022-12-16T21:13:56.296Z,35.08
2022-12-16T21:16:43.062Z,34.65
2022-12-16T21:19:33.347Z,37.30
2022-12-16T21:22:20.220Z,33.53
2022-12-16T21:25:06.164Z,35.10
2022-12-16T21:28:05.749Z,31.75
2022-12-16T21:30:51.865Z,32.05
2022-12-16T21:33:39.328Z,34.00
2022-12-16T21:36:25.615Z,32.15
2022-12-16T21:39:11.578Z,32.60
2022-12-16T21:41:57.588Z,32.70
2022-12-16T21:44:43.790Z,33.53
2022-12-16T21:47:29.581Z,33.55
2022-12-16T21:50:15.547Z,31.85
2022-12-16T21:53:01.581Z,33.70
2022-12-16T21:55:47.521Z,40.85
2022-12-16T21:58:34.398Z,34.75
2022-12-16T22:01:20.625Z,35.05
2022-12-16T22:04:06.691Z,33.03
2022-12-16T22:06:53.752Z,33.78
2022-12-16T22:09:40.013Z,32.88
2022-12-16T22:12:26.573Z,33.90
2022-12-16T22:15:12.673Z,33.22
2022-12-16T22:17:58.993Z,32.53
2022-12-16T22:20:45.616Z,34.28
2022-12-16T22:23:31.258Z,33.35
2022-12-16T22:26:18.412Z,32.58
2022-12-16T22:29:04.623Z,32.75
2022-12-16T22:31:50.438Z,32.97
2022-12-16T22:34:36.783Z,32.75
2022-12-16T22:37:22.650Z,33.72
2022-12-16T22:40:08.774Z,34.40
2022-12-16T22:42:56.315Z,34.13
2022-12-16T22:45:41.883Z,32.90
2022-12-16T22:48:30.694Z,35.28
2022-12-16T22:51:16.712Z,34.67
2022-12-16T22:54:10.563Z,35.10
2022-12-16T22:56:57.413Z,34.53
2022-12-16T22:59:43.472Z,34.00
2022-12-16T23:02:29.544Z,34.13
2022-12-16T23:05:15.846Z,36.05
2022-12-16T23:08:02.122Z,35.75
2022-12-16T23:10:48.160Z,34.35
2022-12-16T23:13:34.657Z,33.95
2022-12-16T23:16:20.409Z,34.17
2022-12-16T23:19:06.683Z,31.00
2022-12-16T23:21:52.688Z,30.05
2022-12-16T23:24:39.532Z,29.05
2022-12-16T23:27:25.773Z,29.92
2022-12-16T23:30:11.632Z,28.85
2022-12-16T23:32:58.143Z,28.95
2022-12-16T23:35:44.525Z,29.08
2022-12-16T23:38:30.619Z,29.65
2022-12-16T23:41:25.439Z,29.98
2022-12-16T23:44:11.829Z,29.75
2022-12-16T23:46:57.783Z,30.83
2022-12-16T23:49:43.696Z,31.10
2022-12-16T23:52:30.116Z,33.13
2022-12-16T23:55:16.194Z,32.45
2022-12-16T23:58:02.068Z,31.83
